• Join FlightAware (Why Join?)
  • Login
  • US Flag 
09:30AM EDT


 

Airport Tracker/Info


-or-


 

Live Flight TrackerFlight Track Log ✈ N3746H ✈ 19-Apr-2013 ✈ KPDX - KATL

Flight Track Log - Related Links

Times and Time Zones

All times are in EDT time to prevent confusion due to time zone crossing. See the N3746H flight status page for this flight to view local times or setup timezone preferences in your user account.

Time Position Orientation Groundspeed Altitude Reporting Facility
EDT Latitude Longitude Course Direction KTS MPH feet Rate Location/Type
09:34AM 45.5983 -122.6083 108° East 176 203 800  Level Seattle Center
09:35AM 45.6114 -122.6461 296° West 182 209 2,100 1,680 Climbing Seattle Center
09:36AM 45.6231 -122.6878 292° West 229 264 2,700 2,700 Climbing Seattle Center
09:36AM 45.6461 -122.7419 301° West 218 251 4,900 3,000 Climbing Seattle Center
09:37AM 45.3806 -122.1346 138° Southeast  Level FlightAware Approximate
09:37AM 45.6697 -122.8308 291° West 249 287 7,800  Level Seattle Center
09:38AM 45.2803 -122.0056 138° Southeast  Level FlightAware Approximate
09:38AM 45.6042 -122.8350 183° South 294 338 10,500  Level Seattle Center
09:39AM 45.2125 -121.8501 110° East  Level FlightAware Approximate
09:39AM 45.5525 -122.7186 122° Southeast 343 395 11,900  Level Seattle Center
09:40AM 45.1691 -121.6683 108° East  Level FlightAware Approximate
09:40AM 45.5014 -122.5883 119° Southeast 368 423 14,400  Level Seattle Center
09:41AM 45.4522 -122.4517 117° Southeast 384 442 16,500 1,860 Climbing Seattle Center
09:42AM 45.4122 -122.3019 111° Southeast 403 464 18,200 1,680 Climbing Seattle Center
09:43AM 45.3686 -122.1486 112° Southeast 415 478 19,900 1,620 Climbing Seattle Center
09:44AM 45.3244 -121.9894 111° Southeast 430 495 21,500 1,380 Climbing Seattle Center
09:45AM 45.2792 -121.8300 112° Southeast 442 509 22,800 1,320 Climbing Seattle Center
09:46AM 45.2294 -121.6578 112° Southeast 459 528 24,300 1,380 Climbing Seattle Center
09:47AM 45.1856 -121.4872 110° East 468 539 25,600 1,560 Climbing Seattle Center
09:48AM 45.1600 -121.3028 101° East 476 548 27,500 1,320 Climbing Seattle Center
09:49AM 45.1281 -121.1206 104° East 477 549 28,400 540 Climbing Seattle Center
09:50AM 45.0953 -120.9297 104° East 492 566 28,700 780 Climbing Seattle Center
09:51AM 45.0614 -120.7317 104° East 513 590 30,000 1,500 Climbing Seattle Center
09:52AM 45.0264 -120.5358 104° East 515 593 31,800 1,500 Climbing Seattle Center
09:53AM 44.9928 -120.3464 104° East 503 579 33,100 900 Climbing Seattle Center
09:54AM 44.9531 -120.1217 104° East 497 572 33,700 360 Climbing Seattle Center
09:55AM 44.9228 -119.9497 104° East 503 579 33,900 240 Climbing Seattle Center
09:56AM 44.8853 -119.7447 104° East 521 600 34,300 540 Climbing Seattle Center
09:57AM 44.8481 -119.5422 104° East 534 615 35,000 300 Climbing Seattle Center
09:58AM 44.8103 -119.3414 105° East 534 615 35,000  Level Seattle Center
09:59AM 44.7722 -119.1403 105° East 533 613 35,000  Level Seattle Center
10:00AM 44.7339 -118.9411 105° East 531 611 35,000  Level Seattle Center
10:02AM 44.6869 -118.7008 105° East 532 612 35,000  Level Seattle Center
10:03AM 44.6481 -118.5011 105° East 531 611 35,000  Level Seattle Center
10:04AM 44.6094 -118.3011 105° East 532 612 35,000  Level Seattle Center
10:05AM 44.5658 -118.0847 106° East 535 616 35,000  Level Salt Lake Center
10:06AM 44.5278 -117.8925 105° East 534 615 35,000  Level Salt Lake Center
10:07AM 44.4825 -117.6708 106° East 530 610 35,000  Level Salt Lake Center
10:08AM 44.4431 -117.4822 106° East 529 609 35,000  Level Salt Lake Center
10:09AM 44.4042 -117.2947 106° East 526 605 35,000  Level Salt Lake Center
10:10AM 44.3586 -117.0769 106° East 524 603 35,000  Level Salt Lake Center
10:11AM 44.3200 -116.8928 106° East 520 598 35,000  Level Salt Lake Center
10:12AM 44.2742 -116.6783 107° East 519 597 35,000  Level Salt Lake Center
10:13AM 44.2350 -116.4947 107° East 519 597 35,000  Level Salt Lake Center
10:14AM 44.1950 -116.3128 107° East 520 598 35,000  Level Salt Lake Center
10:15AM 44.1483 -116.1017 107° East 519 597 35,000  Level Salt Lake Center
10:16AM 44.1094 -115.9208 107° East 514 592 35,000  Level Salt Lake Center
10:17AM 44.0611 -115.7061 107° East 523 602 35,000  Level Salt Lake Center
10:18AM 44.0208 -115.5239 107° East 518 596 35,000  Level Salt Lake Center
10:19AM 43.9722 -115.3111 108° East 518 596 35,000  Level Salt Lake Center
10:20AM 43.9303 -115.1286 108° East 519 597 35,000  Level Salt Lake Center
10:21AM 43.8889 -114.9467 107° East 518 596 35,000  Level Salt Lake Center
10:22AM 43.8389 -114.7342 108° East 520 598 35,000  Level Salt Lake Center
10:23AM 43.7967 -114.5531 108° East 517 595 35,000  Level Salt Lake Center
10:24AM 43.7536 -114.3736 108° East 515 593 35,000  Level Salt Lake Center
10:25AM 43.7047 -114.1653 108° East 512 589 35,000  Level Salt Lake Center
10:26AM 43.6614 -113.9872 109° East 510 587 35,000  Level Salt Lake Center
10:27AM 43.6139 -113.7936 109° East 506 582 35,000  Level Salt Lake Center
10:28AM 43.5717 -113.6189 108° East 503 579 35,000  Level Salt Lake Center
10:29AM 43.5203 -113.4144 109° East 507 583 35,000  Level Salt Lake Center
10:30AM 43.4767 -113.2406 109° East 505 581 35,000  Level Salt Lake Center
10:31AM 43.4261 -113.0372 109° East 503 579 35,000  Level Salt Lake Center
10:32AM 43.3814 -112.8644 110° East 502 578 35,000  Level Salt Lake Center
10:33AM 43.3303 -112.6619 109° East 502 578 35,000  Level Salt Lake Center
10:34AM 43.2858 -112.4883 109° East 503 579 35,000  Level Salt Lake Center
10:35AM 43.2400 -112.3156 110° East 503 579 35,000  Level Salt Lake Center
10:36AM 43.1872 -112.1136 110° East 505 581 35,000  Level Salt Lake Center
10:37AM 43.1433 -111.9411 109° East 504 580 35,000  Level Salt Lake Center
10:38AM 43.0883 -111.7417 111° Southeast 503 579 35,000  Level Salt Lake Center
10:39AM 43.0422 -111.5728 110° East 498 573 35,000  Level Salt Lake Center
10:40AM 42.9964 -111.4019 110° East 501 577 35,000  Level Salt Lake Center
10:41AM 42.9444 -111.2019 109° East 501 577 35,000  Level Salt Lake Center
10:42AM 42.8978 -111.0342 111° Southeast 499 574 35,000  Level Salt Lake Center
10:43AM 42.8456 -110.8342 110° East 502 578 35,000  Level Salt Lake Center
10:44AM 42.8033 -110.6650 109° East 498 573 35,000  Level Salt Lake Center
10:46AM 42.7511 -110.4711 110° East 492 566 35,000  Level Salt Lake Center
10:47AM 42.7081 -110.3011 109° East 494 568 35,000  Level Salt Lake Center
10:48AM 42.6650 -110.1314 109° East 496 571 35,000  Level Salt Lake Center
10:49AM 42.6139 -109.9325 109° East 499 574 35,000  Level Salt Lake Center
10:50AM 42.5689 -109.7631 110° East 499 574 35,000  Level Salt Lake Center
10:51AM 42.5172 -109.5653 109° East 499 574 35,000  Level Salt Lake Center
10:52AM 42.4728 -109.3969 110° East 498 573 35,000  Level Salt Lake Center
10:53AM 42.4272 -109.2292 110° East 497 572 35,000  Level Salt Lake Center
10:54AM 42.3744 -109.0300 110° East 501 577 35,000  Level Salt Lake Center
10:55AM 42.3281 -108.8600 110° East 502 578 35,000  Level Salt Lake Center
10:56AM 42.2747 -108.6608 110° East 503 579 35,000  Level Salt Lake Center
10:57AM 42.2272 -108.4903 111° Southeast 504 580 35,000  Level Salt Lake Center
10:58AM 42.1783 -108.3175 111° Southeast 511 588 35,000  Level Salt Lake Center
10:59AM 42.1253 -108.1228 110° East 499 574 35,000  Level Salt Lake Center
11:00AM 42.0769 -107.9514 111° Southeast 504 580 35,000  Level Salt Lake Center
11:01AM 42.0217 -107.7569 111° Southeast 502 578 35,000  Level Salt Lake Center
11:02AM 41.9822 -107.6183 111° Southeast 496 571 35,000  Level Denver Center
11:03AM 41.9378 -107.4533 110° East 493 567 35,000  Level Denver Center
11:04AM 41.8886 -107.2558 108° East 496 571 35,000  Level Denver Center
11:05AM 41.8453 -107.0886 109° East 496 571 35,000  Level Denver Center
11:06AM 41.7942 -106.8919 109° East 500 575 35,000  Level Denver Center
11:07AM 41.7478 -106.7208 110° East 506 582 35,000  Level Denver Center
11:08AM 41.6947 -106.5228 110° East 506 582 35,000  Level Denver Center
11:09AM 41.6500 -106.3550 110° East 508 585 35,000  Level Denver Center
11:10AM 41.5964 -106.1583 110° East 507 583 35,000  Level Denver Center
11:11AM 41.5511 -105.9917 110° East 503 579 35,000  Level Denver Center
11:12AM 41.4983 -105.7975 110° East 501 577 35,000  Level Denver Center
11:13AM 41.4525 -105.6322 110° East 499 574 35,000  Level Denver Center
11:14AM 41.3989 -105.4386 110° East 500 575 35,000  Level Denver Center
11:15AM 41.3525 -105.2733 110° East 499 574 35,000  Level Denver Center
11:16AM 41.3058 -105.1086 111° Southeast 498 573 35,000  Level Denver Center
11:17AM 41.2519 -104.9181 111° Southeast 497 572 35,000  Level Denver Center
11:18AM 41.2033 -104.7511 111° Southeast 503 579 35,000  Level Denver Center
11:19AM 41.1419 -104.5625 113° Southeast 500 575 35,000  Level Denver Center
11:20AM 41.0881 -104.3997 114° Southeast 503 579 35,000  Level Denver Center
11:21AM 41.0256 -104.2092 113° Southeast 507 583 35,000  Level Denver Center
11:22AM 40.9667 -104.0311 114° Southeast 511 588 35,000  Level Denver Center
11:23AM 40.9092 -103.8589 114° Southeast 508 585 35,000  Level Denver Center
11:24AM 40.8511 -103.6878 114° Southeast 505 581 35,000  Level Denver Center
11:25AM 40.7933 -103.5158 114° Southeast 506 582 35,000  Level Denver Center
11:27AM 40.7361 -103.3447 114° Southeast 504 580 35,000  Level Denver Center
11:28AM 40.6675 -103.1453 114° Southeast 506 582 35,000  Level Denver Center
11:29AM 40.6086 -102.9756 115° Southeast 505 581 35,000  Level Denver Center
11:30AM 40.5494 -102.8042 114° Southeast 508 585 35,000  Level Denver Center
11:31AM 40.4864 -102.6247 115° Southeast 508 585 35,000  Level Denver Center
11:32AM 40.4300 -102.4636 115° Southeast 507 583 35,000  Level Denver Center
11:33AM 40.3731 -102.3017 115° Southeast 510 587 35,000  Level Denver Center
11:34AM 40.3056 -102.1144 115° Southeast 510 587 35,000  Level Denver Center
11:35AM 40.2494 -101.9542 115° Southeast 509 586 35,000  Level Denver Center
11:36AM 40.1819 -101.7683 115° Southeast 508 585 35,000  Level Denver Center
11:37AM 40.1250 -101.6083 115° Southeast 508 585 35,000  Level Denver Center
11:38AM 40.0569 -101.4222 115° Southeast 512 589 35,000  Level Denver Center
11:39AM 39.9989 -101.2647 116° Southeast 507 583 35,000  Level Denver Center
11:40AM 39.9319 -101.0800 115° Southeast 507 583 35,000  Level Denver Center
11:41AM 39.8728 -100.9200 116° Southeast 511 588 35,000  Level Denver Center
11:42AM 39.8042 -100.7375 116° Southeast 507 583 35,000  Level Denver Center
11:43AM 39.7458 -100.5808 116° Southeast 505 581 35,000  Level Denver Center
11:44AM 39.6772 -100.3983 116° Southeast 504 580 35,000  Level Denver Center
11:45AM 39.6178 -100.2417 116° Southeast 505 581 35,000  Level Denver Center
11:46AM 39.5481 -100.0600 116° Southeast 505 581 35,000  Level Denver Center
11:47AM 39.4892 -99.9036 116° Southeast 507 583 35,000  Level Denver Center
11:48AM 39.4175 -99.7203 117° Southeast 511 588 35,000  Level Denver Center
11:49AM 39.3364 -99.5092 116° Southeast 514 592 35,000  Level Denver Center
11:51AM 39.2744 -99.3511 117° Southeast 516 594 35,000  Level Denver Center
11:52AM 39.2014 -99.1653 117° Southeast 520 598 35,000  Level Denver Center
11:53AM 39.1369 -99.0008 117° Southeast 515 593 35,000  Level Denver Center
11:54AM 39.0722 -98.8369 117° Southeast 518 596 35,000  Level Denver Center
11:54AM 39.0483 -98.7792 118° Southeast 518 596 35,000  Level Kansas City Center
11:55AM 38.9839 -98.6161 117° Southeast 512 589 35,000  Level Kansas City Center
11:56AM 38.9244 -98.4511 115° Southeast 509 586 35,000  Level Kansas City Center
11:57AM 38.8653 -98.2853 115° Southeast 509 586 35,000  Level Kansas City Center
11:58AM 38.8039 -98.1183 115° Southeast 514 592 35,000  Level Kansas City Center
11:59AM 38.7431 -97.9528 115° Southeast 512 589 35,000  Level Kansas City Center
12:00PM 38.6819 -97.7875 115° Southeast 512 589 35,000  Level Kansas City Center
12:01PM 38.6086 -97.5883 115° Southeast 513 590 35,000  Level Kansas City Center
12:02PM 38.5464 -97.4231 116° Southeast 513 590 35,000  Level Kansas City Center
12:03PM 38.4850 -97.2575 115° Southeast 512 589 35,000  Level Kansas City Center
12:04PM 38.4236 -97.0936 116° Southeast 510 587 35,000  Level Kansas City Center
12:05PM 38.3622 -96.9325 116° Southeast 506 582 35,000  Level Kansas City Center
12:06PM 38.3006 -96.7711 116° Southeast 506 582 35,000  Level Kansas City Center
12:07PM 38.2389 -96.6114 116° Southeast 502 578 35,000  Level Kansas City Center
12:08PM 38.1650 -96.4219 116° Southeast 497 572 35,000  Level Kansas City Center
12:09PM 38.1036 -96.2608 116° Southeast 504 580 35,000  Level Kansas City Center
12:11PM 38.0414 -96.1031 117° Southeast 516 594 35,000  Level Kansas City Center
12:12PM 37.9672 -95.9228 118° Southeast 518 596 35,000  Level Kansas City Center
12:13PM 37.9008 -95.7806 121° Southeast 517 595 35,000  Level Kansas City Center
12:14PM 37.8133 -95.5900 120° Southeast 518 596 35,000  Level Kansas City Center
12:16PM 37.6887 -95.3159 120° Southeast  Level FlightAware Approximate
12:17PM 37.5947 -95.1183 120° Southeast 515 593 35,000  Level Kansas City Center
12:18PM 37.5236 -94.9644 120° Southeast 511 588 35,000  Level Kansas City Center
12:19PM 37.4517 -94.8114 121° Southeast 507 583 35,000  Level Kansas City Center
12:20PM 37.3789 -94.6561 120° Southeast 510 587 35,000  Level Kansas City Center
12:21PM 37.3056 -94.5022 121° Southeast 510 587 35,000  Level Kansas City Center
12:22PM 37.2197 -94.3222 121° Southeast 504 580 35,000  Level Kansas City Center
12:23PM 37.1483 -94.1711 121° Southeast 501 577 35,000  Level Kansas City Center
12:24PM 37.0775 -94.0222 121° Southeast 498 573 35,000  Level Kansas City Center
12:25PM 37.0053 -93.8719 121° Southeast 499 574 35,000  Level Kansas City Center
12:26PM 36.9375 -93.7317 121° Southeast 500 575 35,000  Level Kansas City Center
12:27PM 36.8617 -93.5797 122° Southeast 507 583 35,000  Level Kansas City Center
12:28PM 36.7722 -93.3997 122° Southeast 509 586 35,000  Level Kansas City Center
12:29PM 36.6886 -93.2239 121° Southeast 504 580 35,000  Level Memphis Center
12:30PM 36.6147 -93.0739 122° Southeast 504 580 35,000  Level Memphis Center
12:31PM 36.5547 -92.9556 122° Southeast 504 580 35,000  Level Memphis Center
12:32PM 36.4767 -92.7958 121° Southeast 504 580 35,000  Level Memphis Center
12:33PM 36.3983 -92.6439 123° Southeast 511 588 35,000  Level Memphis Center
12:34PM 36.3239 -92.4922 121° Southeast 511 588 35,000  Level Memphis Center
12:35PM 36.2450 -92.3386 122° Southeast 516 594 35,000  Level Memphis Center
12:36PM 36.1872 -92.1725 113° Southeast 521 600 35,000  Level Memphis Center
12:37PM 36.1231 -91.9836 113° Southeast 521 600 35,000  Level Memphis Center
12:38PM 36.0708 -91.8131 111° Southeast 527 606 35,000  Level Memphis Center
12:39PM 36.0228 -91.6428 109° East 527 606 35,000  Level Memphis Center
12:40PM 35.9661 -91.4753 113° Southeast 527 606 35,000  Level Memphis Center
12:41PM 35.9172 -91.3106 110° East 520 598 35,000  Level Memphis Center
12:42PM 35.8642 -91.1486 112° Southeast 515 593 35,000  Level Memphis Center
12:43PM 35.8131 -90.9894 112° Southeast 508 585 35,000  Level Memphis Center
12:44PM 35.7617 -90.8278 111° Southeast 503 579 35,000  Level Memphis Center
12:45PM 35.7119 -90.6717 111° Southeast 498 573 35,000  Level Memphis Center
12:46PM 35.6747 -90.5308 108° East 493 567 35,000  Level Memphis Center
12:47PM 35.6228 -90.3725 112° Southeast 493 567 35,000  Level Memphis Center
12:48PM 35.5725 -90.2167 112° Southeast 488 562 35,000  Level Memphis Center
12:49PM 35.5200 -90.0586 112° Southeast 495 570 35,000  Level Memphis Center
12:50PM 35.4633 -89.8828 112° Southeast 495 570 35,000  Level Memphis Center
12:51PM 35.4083 -89.7228 113° Southeast 495 570 35,000  Level Memphis Center
12:52PM 35.3572 -89.5628 111° Southeast 495 570 35,000  Level Memphis Center
12:53PM 35.3042 -89.4081 113° Southeast 495 570 35,000  Level Memphis Center
12:54PM 35.2528 -89.2511 112° Southeast 495 570 35,000  Level Memphis Center
12:55PM 35.1992 -89.0967 113° Southeast 500 575 35,000  Level Memphis Center
12:56PM 35.1497 -88.9578 113° Southeast 495 570 35,000  Level Memphis Center
12:57PM 35.0997 -88.8014 111° Southeast 495 570 35,000  Level Memphis Center
12:58PM 35.0433 -88.6450 114° Southeast 495 570 35,000 -600 Level Memphis Center
12:59PM 34.9869 -88.4839 113° Southeast 484 557 33,900 -1,020 Descending Memphis Center
01:00PM 34.9344 -88.3331 113° Southeast 477 549 33,000 -480 Descending Memphis Center
01:01PM 34.8817 -88.1800 113° Southeast 482 555 33,000  Level Memphis Center
01:02PM 34.8267 -88.0219 113° Southeast 499 574 33,000  Level Memphis Center
01:03PM 34.7736 -87.8719 113° Southeast 489 563 33,000  Level Memphis Center
01:04PM 34.7206 -87.7219 113° Southeast 495 570 33,000  Level Memphis Center
01:05PM 34.6714 -87.5769 112° Southeast 476 548 33,000  Level Memphis Center
01:07PM 34.6072 -87.3600 110° East 455 524 33,000  Level Atlanta Center
01:08PM 34.5761 -87.1997 103° East 467 537 33,000  Level Atlanta Center
01:09PM 34.5444 -87.0397 103° East 477 549 33,000  Level Atlanta Center
01:10PM 34.5128 -86.8772 103° East 487 560 33,000  Level Atlanta Center
01:11PM 34.4831 -86.7175 103° East 487 560 33,000  Level Atlanta Center
01:12PM 34.4511 -86.5553 103° East 492 566 33,000  Level Atlanta Center
01:13PM 34.4208 -86.3933 103° East 492 566 33,000 -300 Level Atlanta Center
01:14PM 34.3864 -86.2311 104° East 492 566 32,400 -840 Descending Atlanta Center
01:15PM 34.3492 -86.0767 106° East 492 566 31,400 -1,500 Descending Atlanta Center
01:16PM 34.3142 -85.9225 105° East 487 560 29,500 -3,240 Descending Atlanta Center
01:17PM 34.2747 -85.7708 107° East 476 548 25,000 -3,720 Descending Atlanta Center
01:18PM 34.2372 -85.6117 106° East 481 554 22,100 -2,760 Descending Atlanta Center
01:19PM 34.1994 -85.4603 107° East 474 545 19,500 -2,700 Descending Atlanta Center
01:20PM 34.1614 -85.3142 107° East 462 532 16,800 -2,400 Descending Atlanta Center
01:21PM 34.1231 -85.1631 107° East 446 513 14,700 -1,440 Descending Atlanta Center
01:22PM 34.0928 -85.0372 106° East 416 479 14,000 -480 Descending Atlanta Center
01:23PM 34.0350 -84.9536 130° Southeast 331 381 13,800 -900 Descending Atlanta Center
01:24PM 33.9750 -84.8781 134° Southeast 325 374 12,300 -900 Descending Atlanta Center
01:25PM 33.9150 -84.8022 134° Southeast 308 354 12,000 -180 Descending Atlanta Center
01:26PM 33.8550 -84.7292 135° Southeast 303 349 12,000  Level Atlanta Center
01:26PM 33.8333 -84.7000 132° Southeast 312 359 12,000  Level Atlanta TRACON
01:27PM 33.7833 -84.6333 132° Southeast 301 346 12,000 -180 Level Atlanta TRACON
01:28PM 33.7333 -84.5667 132° Southeast 267 307 11,700 -1,140 Descending Atlanta TRACON
01:29PM 33.7333 -84.4667 90° East 305 351 9,800 -1,800 Descending Atlanta TRACON
01:30PM 33.7333 -84.3667 90° East 291 335 8,100 -1,740 Descending Atlanta TRACON
01:31PM 33.7333 -84.2833 90° East 279 321 6,500 -1,620 Descending Atlanta TRACON
01:32PM 33.7333 -84.1833 90° East 281 323 5,100 -780 Descending Atlanta TRACON
01:33PM 33.7333 -84.1000 90° East 270 311 5,000 -60 Descending Atlanta TRACON
01:34PM 33.7333 -84.0167 90° East 268 308 5,000  Level Atlanta TRACON
01:35PM 33.6667 -84.0000 168° South 189 217 5,000  Level Atlanta TRACON
01:36PM 33.6500 -84.0500 248° West 141 162 5,000  Level Atlanta TRACON
01:37PM 33.6500 -84.1000 270° West 142 163 5,000  Level Atlanta TRACON
01:38PM 33.6500 -84.1333 270° West 141 162 5,000 -240 Level Atlanta TRACON
01:39PM 33.6500 -84.1833 270° West 140 161 4,600 -600 Descending Atlanta TRACON
01:40PM 33.6500 -84.2333 270° West 151 174 3,900 -780 Descending Atlanta TRACON